createdAt,value
2024-02-11T00:00:05.618Z,91.11
2024-02-11T00:05:29.368Z,91.09
2024-02-11T00:10:33.385Z,91.15
2024-02-11T00:15:39.636Z,91.19
2024-02-11T00:20:43.567Z,91.17
2024-02-11T00:25:47.457Z,91.21
2024-02-11T00:30:51.307Z,91.29
2024-02-11T00:35:57.747Z,91.22
2024-02-11T00:41:01.659Z,91.25
2024-02-11T00:46:05.744Z,91.25
2024-02-11T00:51:11.239Z,91.24
2024-02-11T00:56:15.906Z,91.28
2024-02-11T01:01:19.939Z,91.41
2024-02-11T01:06:23.707Z,91.27
2024-02-11T01:11:27.685Z,91.30
2024-02-11T01:16:31.788Z,91.20
2024-02-11T01:21:36.278Z,91.36
2024-02-11T01:26:40.218Z,91.27
2024-02-11T01:31:44.005Z,91.27
2024-02-11T01:36:48.009Z,91.26
2024-02-11T01:41:51.894Z,91.42
2024-02-11T01:46:56.965Z,91.46
2024-02-11T01:52:01.373Z,91.27
2024-02-11T01:57:06.932Z,91.34
2024-02-11T02:02:13.471Z,91.47
2024-02-11T02:07:17.691Z,91.29
2024-02-11T02:12:23.285Z,91.38
2024-02-11T02:17:27.241Z,91.41
2024-02-11T02:22:33.244Z,91.49
2024-02-11T02:27:37.854Z,91.43
2024-02-11T02:32:41.601Z,91.28
2024-02-11T02:37:48.078Z,91.38
2024-02-11T02:42:51.962Z,91.32
2024-02-11T02:47:56.163Z,91.43
2024-02-11T02:53:00.129Z,91.31
2024-02-11T02:58:08.119Z,91.57
2024-02-11T03:03:12.104Z,91.43
2024-02-11T03:08:16.723Z,91.48
2024-02-11T03:13:20.662Z,91.55
2024-02-11T03:18:24.705Z,91.57
2024-02-11T03:23:28.521Z,91.54
2024-02-11T03:28:34.964Z,91.62
2024-02-11T03:33:39.158Z,91.59
2024-02-11T03:38:43.110Z,91.59
2024-02-11T03:43:46.983Z,91.52
2024-02-11T03:48:50.786Z,91.64
2024-02-11T03:53:54.678Z,91.54
2024-02-11T03:58:58.577Z,91.53
2024-02-11T04:04:03.177Z,91.48
2024-02-11T04:09:09.345Z,91.54
2024-02-11T04:14:16.320Z,91.49
2024-02-11T04:19:21.593Z,91.47
2024-02-11T04:24:29.088Z,91.52
2024-02-11T04:29:33.749Z,91.62
2024-02-11T04:34:42.238Z,91.48
2024-02-11T04:39:46.994Z,91.61
2024-02-11T04:44:52.032Z,91.61
2024-02-11T04:49:55.929Z,91.58
2024-02-11T04:54:59.954Z,91.76
2024-02-11T05:00:10.468Z,91.74
2024-02-11T05:05:14.321Z,91.71
2024-02-11T05:10:18.200Z,91.69
2024-02-11T05:15:22.011Z,91.61
2024-02-11T05:20:27.023Z,91.62
2024-02-11T05:25:31.281Z,91.70
2024-02-11T05:30:35.235Z,91.70
2024-02-11T05:35:38.965Z,91.75
2024-02-11T05:40:45.788Z,91.68
2024-02-11T05:45:50.572Z,91.68
2024-02-11T05:50:54.350Z,91.67
2024-02-11T05:55:58.682Z,91.76
2024-02-11T06:01:05.095Z,91.77
2024-02-11T06:06:09.140Z,91.69
2024-02-11T06:11:13.107Z,91.71
2024-02-11T06:16:17.580Z,91.62
2024-02-11T06:21:21.345Z,91.76
2024-02-11T06:26:25.447Z,91.92
2024-02-11T06:31:29.218Z,91.88
2024-02-11T06:36:37.579Z,91.76
2024-02-11T06:41:42.186Z,91.84
2024-02-11T06:46:46.228Z,91.87
2024-02-11T06:51:51.625Z,91.80
2024-02-11T06:56:55.970Z,91.83
2024-02-11T07:02:00.250Z,91.87
2024-02-11T07:07:04.340Z,91.84
2024-02-11T07:12:08.576Z,91.88
2024-02-11T07:17:15.425Z,91.76
2024-02-11T07:22:19.362Z,91.74
2024-02-11T07:27:24.782Z,91.84
2024-02-11T07:32:28.943Z,92.00
2024-02-11T07:37:32.862Z,91.87
2024-02-11T07:42:37.964Z,91.79
2024-02-11T07:47:46.635Z,91.72
2024-02-11T07:52:50.469Z,91.78
2024-02-11T07:57:55.190Z,91.88
2024-02-11T08:02:59.210Z,91.81
2024-02-11T08:08:03.985Z,91.75
2024-02-11T08:13:11.233Z,91.86
2024-02-11T08:18:15.740Z,91.73
2024-02-11T08:23:21.383Z,91.88
2024-02-11T08:28:25.510Z,92.00
2024-02-11T08:33:30.054Z,91.86
2024-02-11T08:38:34.177Z,91.75
2024-02-11T08:43:41.084Z,91.84
2024-02-11T08:48:45.735Z,91.94
2024-02-11T08:53:51.632Z,92.01
2024-02-11T08:58:55.528Z,91.92
2024-02-11T09:04:00.862Z,91.73
2024-02-11T09:09:06.731Z,91.79
2024-02-11T09:14:11.507Z,91.80
2024-02-11T09:19:15.803Z,91.91
2024-02-11T09:24:20.052Z,91.94
2024-02-11T09:29:24.656Z,92.00
2024-02-11T09:34:28.612Z,91.96
2024-02-11T09:39:43.352Z,91.83
2024-02-11T09:44:50.540Z,91.85
2024-02-11T09:49:57.111Z,91.91
2024-02-11T09:55:03.522Z,91.92
2024-02-11T10:00:10.176Z,91.97
2024-02-11T10:05:18.524Z,91.83
2024-02-11T10:10:22.738Z,91.94
2024-02-11T10:15:27.454Z,91.99
2024-02-11T10:20:31.468Z,91.99
2024-02-11T10:25:35.739Z,91.75
2024-02-11T10:30:39.924Z,91.82
2024-02-11T10:35:43.946Z,91.95
2024-02-11T10:40:48.179Z,91.98
2024-02-11T10:45:52.605Z,91.84
2024-02-11T10:51:09.236Z,91.71
2024-02-11T10:56:15.299Z,92.03
2024-02-11T11:01:21.376Z,91.91
2024-02-11T11:06:27.981Z,92.00
2024-02-11T11:11:34.573Z,91.87
2024-02-11T11:16:41.853Z,91.79
2024-02-11T11:21:52.842Z,91.87
2024-02-11T11:26:58.283Z,91.71
2024-02-11T11:32:09.811Z,91.76
2024-02-11T11:37:16.240Z,91.85
2024-02-11T11:42:20.711Z,91.91
2024-02-11T11:47:25.402Z,91.91
2024-02-11T11:52:29.835Z,91.78
2024-02-11T11:57:34.654Z,91.84
2024-02-11T12:02:39.089Z,91.92
2024-02-11T12:07:43.773Z,92.03
2024-02-11T12:12:48.666Z,91.95
2024-02-11T12:17:59.081Z,91.85
2024-02-11T12:23:03.448Z,91.89
2024-02-11T12:28:07.562Z,91.78
2024-02-11T12:33:12.333Z,91.81
2024-02-11T12:38:19.377Z,91.81
2024-02-11T12:43:24.838Z,91.78
2024-02-11T12:48:28.844Z,91.69
2024-02-11T12:53:34.415Z,91.60
2024-02-11T12:58:38.719Z,91.63
2024-02-11T13:03:43.613Z,91.70
2024-02-11T13:08:47.864Z,91.71
2024-02-11T13:13:52.065Z,91.80
2024-02-11T13:18:58.956Z,91.86
2024-02-11T13:24:02.883Z,91.70
2024-02-11T13:29:09.482Z,91.71
2024-02-11T13:34:13.541Z,91.79
2024-02-11T13:39:18.764Z,91.76
2024-02-11T13:44:23.161Z,91.79
2024-02-11T13:49:27.409Z,91.86
2024-02-11T13:54:31.405Z,91.73
2024-02-11T13:59:37.281Z,91.77
2024-02-11T14:04:41.829Z,91.61
2024-02-11T14:09:46.189Z,91.79
2024-02-11T14:14:51.479Z,91.83
2024-02-11T14:19:55.487Z,91.65
2024-02-11T14:24:59.345Z,91.67
2024-02-11T14:30:04.468Z,91.73
2024-02-11T14:35:10.166Z,91.71
2024-02-11T14:40:15.995Z,91.78
2024-02-11T14:45:23.417Z,91.70
2024-02-11T14:50:28.886Z,91.76
2024-02-11T14:55:33.829Z,91.80
2024-02-11T15:00:39.856Z,91.83
2024-02-11T15:05:45.320Z,91.68
2024-02-11T15:10:49.376Z,91.78
2024-02-11T15:15:53.422Z,91.85
2024-02-11T15:20:57.561Z,91.69
2024-02-11T15:26:01.385Z,91.79
2024-02-11T15:31:05.549Z,91.93
2024-02-11T15:36:10.616Z,91.89
2024-02-11T15:41:15.162Z,91.85
2024-02-11T15:46:19.054Z,91.95
2024-02-11T15:51:24.030Z,91.80
2024-02-11T15:56:28.017Z,91.85
2024-02-11T16:01:32.042Z,91.84
2024-02-11T16:06:36.971Z,91.92
2024-02-11T16:11:41.498Z,91.88
2024-02-11T16:16:46.104Z,91.88
2024-02-11T16:21:51.166Z,91.89
2024-02-11T16:26:55.174Z,91.78
2024-02-11T16:31:59.203Z,91.86
2024-02-11T16:37:03.184Z,91.88
2024-02-11T16:42:08.488Z,91.78
2024-02-11T16:47:12.731Z,91.90
2024-02-11T16:52:17.156Z,91.92
2024-02-11T16:57:20.890Z,91.78
2024-02-11T17:02:25.061Z,91.78
2024-02-11T17:07:29.280Z,91.87
2024-02-11T17:12:34.969Z,91.88
2024-02-11T17:17:39.570Z,91.84
2024-02-11T17:22:44.343Z,91.86
2024-02-11T17:27:49.834Z,91.93
2024-02-11T17:32:59.385Z,91.90
2024-02-11T17:38:06.705Z,91.99
2024-02-11T17:43:12.244Z,91.96
2024-02-11T17:48:16.329Z,91.97
2024-02-11T17:53:28.031Z,92.03
2024-02-11T17:58:38.564Z,92.15
2024-02-11T18:03:46.475Z,92.02
2024-02-11T18:08:58.782Z,91.99
2024-02-11T18:14:05.691Z,92.03
2024-02-11T18:19:12.410Z,92.05
2024-02-11T18:24:18.742Z,92.02
2024-02-11T18:29:24.562Z,92.06
2024-02-11T18:34:48.964Z,92.09
2024-02-11T18:40:22.660Z,92.23
2024-02-11T18:45:46.380Z,92.08
2024-02-11T18:50:53.252Z,92.17
2024-02-11T18:56:00.630Z,92.00
2024-02-11T19:01:06.365Z,92.14
2024-02-11T19:06:14.922Z,92.10
2024-02-11T19:11:20.196Z,91.98
2024-02-11T19:16:25.323Z,92.11
2024-02-11T19:21:30.035Z,92.24
2024-02-11T19:26:35.088Z,92.14
2024-02-11T19:31:39.391Z,92.31
2024-02-11T19:36:44.367Z,92.28
2024-02-11T19:41:48.628Z,92.24
2024-02-11T19:46:53.380Z,92.29
2024-02-11T19:51:58.559Z,92.37
2024-02-11T19:57:05.672Z,92.37
2024-02-11T20:02:12.982Z,92.35
2024-02-11T20:07:18.316Z,92.46
2024-02-11T20:12:23.038Z,92.42
2024-02-11T20:17:27.454Z,92.40
2024-02-11T20:22:33.584Z,92.39
2024-02-11T20:27:38.293Z,92.33
2024-02-11T20:32:46.011Z,92.38
2024-02-11T20:38:16.417Z,92.43
2024-02-11T20:43:54.354Z,92.40
2024-02-11T20:49:00.355Z,92.26
2024-02-11T20:54:10.400Z,92.31
2024-02-11T20:59:17.505Z,92.42
2024-02-11T21:04:23.568Z,92.41
2024-02-11T21:09:28.503Z,92.42
2024-02-11T21:14:36.138Z,92.48
2024-02-11T21:19:40.435Z,92.46
2024-02-11T21:24:45.087Z,92.51
2024-02-11T21:29:52.369Z,92.50
2024-02-11T21:35:06.829Z,92.42
2024-02-11T21:40:51.962Z,92.47
2024-02-11T21:46:10.246Z,92.54
2024-02-11T21:51:15.982Z,92.60
2024-02-11T21:56:20.847Z,92.48
2024-02-11T22:01:25.447Z,92.51
2024-02-11T22:06:30.079Z,92.45
2024-02-11T22:11:35.896Z,92.51
2024-02-11T22:16:40.574Z,92.58
2024-02-11T22:21:45.175Z,92.68
2024-02-11T22:26:57.136Z,92.67
2024-02-11T22:32:44.390Z,92.81
2024-02-11T22:38:09.505Z,92.74
2024-02-11T22:43:46.753Z,92.67
2024-02-11T22:49:09.964Z,92.52
2024-02-11T22:54:40.817Z,92.59
2024-02-11T22:59:48.147Z,92.75
2024-02-11T23:05:00.602Z,92.73
2024-02-11T23:10:49.422Z,92.76
2024-02-11T23:15:55.526Z,92.47
2024-02-11T23:21:13.426Z,92.57
2024-02-11T23:26:43.098Z,92.70
2024-02-11T23:32:01.505Z,92.71
2024-02-11T23:37:07.693Z,92.68
2024-02-11T23:42:13.763Z,92.64
2024-02-11T23:47:18.795Z,92.76
2024-02-11T23:52:57.457Z,92.78
2024-02-11T23:59:18.599Z,92.74
